createdAt,value
2022-12-01T00:01:16.457Z,3.15
2022-12-01T00:03:44.600Z,3.17
2022-12-01T00:06:15.502Z,3.16
2022-12-01T00:09:04.479Z,3.16
2022-12-01T00:11:31.604Z,3.13
2022-12-01T00:14:01.011Z,3.14
2022-12-01T00:16:28.949Z,3.27
2022-12-01T00:18:57.082Z,3.29
2022-12-01T00:21:26.640Z,3.13
2022-12-01T00:23:56.288Z,3.16
2022-12-01T00:26:25.143Z,3.11
2022-12-01T00:28:53.772Z,3.13
2022-12-01T00:31:23.648Z,3.11
2022-12-01T00:33:51.587Z,3.21
2022-12-01T00:36:19.525Z,3.15
2022-12-01T00:38:47.457Z,3.09
2022-12-01T00:41:15.305Z,3.10
2022-12-01T00:43:43.334Z,2.99
2022-12-01T00:46:11.229Z,2.99
2022-12-01T00:48:40.574Z,2.99
2022-12-01T00:51:08.422Z,2.92
2022-12-01T00:53:36.337Z,2.98
2022-12-01T00:56:04.360Z,2.96
2022-12-01T00:58:32.170Z,2.82
2022-12-01T01:01:01.151Z,2.78
2022-12-01T01:03:30.014Z,2.76
2022-12-01T01:06:05.298Z,2.76
2022-12-01T01:08:33.462Z,2.90
2022-12-01T01:11:01.696Z,2.87
2022-12-01T01:13:30.398Z,2.86
2022-12-01T01:15:59.898Z,2.84
2022-12-01T01:18:28.001Z,2.70
2022-12-01T01:21:01.388Z,2.60
2022-12-01T01:23:29.322Z,2.60
2022-12-01T01:26:03.265Z,2.45
2022-12-01T01:28:31.367Z,2.41
2022-12-01T01:30:59.582Z,2.43
2022-12-01T01:33:27.752Z,2.36
2022-12-01T01:36:01.199Z,2.32
2022-12-01T01:38:29.618Z,2.24
2022-12-01T01:40:57.654Z,2.25
2022-12-01T01:43:44.050Z,2.23
2022-12-01T01:46:13.416Z,2.20
2022-12-01T01:48:42.490Z,2.31
2022-12-01T01:51:12.686Z,2.40
2022-12-01T01:53:40.542Z,2.21
2022-12-01T01:56:09.430Z,2.25
2022-12-01T01:58:38.304Z,2.22
2022-12-01T02:01:07.438Z,2.19
2022-12-01T02:03:36.991Z,2.32
2022-12-01T02:06:05.648Z,2.32
2022-12-01T02:08:36.423Z,2.21
2022-12-01T02:11:19.546Z,2.31
2022-12-01T02:13:54.404Z,2.30
2022-12-01T02:16:28.878Z,2.40
2022-12-01T02:19:00.393Z,2.26
2022-12-01T02:21:39.740Z,2.14
2022-12-01T02:25:01.341Z,2.12
2022-12-01T02:27:41.392Z,2.14
2022-12-01T02:30:11.704Z,2.13
2022-12-01T02:32:56.092Z,2.18
2022-12-01T02:35:28.757Z,2.06
2022-12-01T02:38:05.461Z,2.11
2022-12-01T02:40:37.818Z,2.03
2022-12-01T02:43:09.541Z,1.96
2022-12-01T02:45:42.133Z,1.90
2022-12-01T02:48:14.410Z,2.06
2022-12-01T02:50:42.995Z,1.97
2022-12-01T02:53:14.408Z,1.96
2022-12-01T02:55:48.792Z,1.89
2022-12-01T02:58:16.683Z,1.92
2022-12-01T03:00:54.463Z,1.96
2022-12-01T03:03:33.766Z,2.11
2022-12-01T03:06:08.428Z,2.04
2022-12-01T03:08:46.098Z,2.12
2022-12-01T03:11:27.203Z,1.97
2022-12-01T03:14:02.553Z,1.91
2022-12-01T03:16:35.080Z,1.88
2022-12-01T03:19:07.972Z,1.92
2022-12-01T03:21:40.551Z,1.78
2022-12-01T03:24:11.537Z,1.80
2022-12-01T03:26:42.440Z,1.73
2022-12-01T03:29:12.726Z,1.91
2022-12-01T03:31:46.625Z,1.84
2022-12-01T03:34:19.045Z,1.89
2022-12-01T03:36:50.330Z,1.87
2022-12-01T03:39:22.017Z,1.77
2022-12-01T03:41:53.867Z,1.82
2022-12-01T03:44:23.277Z,1.79
2022-12-01T03:46:54.802Z,1.73
2022-12-01T03:49:25.622Z,1.71
2022-12-01T03:51:59.228Z,1.78
2022-12-01T03:54:32.327Z,1.88
2022-12-01T03:57:07.020Z,1.78
2022-12-01T03:59:36.920Z,1.83
2022-12-01T04:02:06.699Z,1.76
2022-12-01T04:04:36.122Z,1.80
2022-12-01T04:07:04.248Z,1.69
2022-12-01T04:09:32.062Z,1.78
2022-12-01T04:12:17.273Z,1.71
2022-12-01T04:14:45.112Z,1.65
2022-12-01T04:17:12.934Z,1.63
2022-12-01T04:19:42.102Z,1.88
2022-12-01T04:22:09.891Z,1.63
2022-12-01T04:24:37.735Z,1.73
2022-12-01T04:27:05.625Z,1.65
2022-12-01T04:29:33.482Z,1.70
2022-12-01T04:32:01.358Z,1.55
2022-12-01T04:34:29.189Z,1.74
2022-12-01T04:36:58.508Z,1.65
2022-12-01T04:39:26.391Z,1.66
2022-12-01T04:41:54.282Z,1.67
2022-12-01T04:44:22.112Z,1.61
2022-12-01T04:46:49.986Z,1.72
2022-12-01T04:49:17.947Z,1.71
2022-12-01T04:51:45.823Z,1.63
2022-12-01T04:54:15.625Z,1.70
2022-12-01T04:56:43.802Z,1.54
2022-12-01T04:59:11.983Z,1.60
2022-12-01T05:01:40.367Z,1.72
2022-12-01T05:04:08.341Z,1.60
2022-12-01T05:06:36.181Z,1.57
2022-12-01T05:09:04.131Z,1.59
2022-12-01T05:11:33.858Z,1.62
2022-12-01T05:14:02.134Z,1.83
2022-12-01T05:16:31.845Z,1.59
2022-12-01T05:19:18.784Z,1.55
2022-12-01T05:21:47.514Z,1.62
2022-12-01T05:24:16.247Z,1.59
2022-12-01T05:26:45.769Z,1.58
2022-12-01T05:29:14.199Z,1.55
2022-12-01T05:31:42.982Z,1.67
2022-12-01T05:34:10.965Z,1.58
2022-12-01T05:36:38.793Z,1.59
2022-12-01T05:39:06.646Z,1.55
2022-12-01T05:41:34.591Z,1.62
2022-12-01T05:44:03.839Z,1.59
2022-12-01T05:46:31.945Z,1.56
2022-12-01T05:48:59.813Z,1.63
2022-12-01T05:51:27.649Z,1.57
2022-12-01T05:53:55.486Z,1.55
2022-12-01T05:56:23.329Z,1.46
2022-12-01T05:58:51.169Z,1.43
2022-12-01T06:01:20.513Z,1.46
2022-12-01T06:03:48.432Z,1.44
2022-12-01T06:06:16.380Z,1.54
2022-12-01T06:08:44.209Z,1.45
2022-12-01T06:11:12.261Z,1.50
2022-12-01T06:13:40.297Z,1.41
2022-12-01T06:16:09.245Z,1.41
2022-12-01T06:18:39.434Z,1.37
2022-12-01T06:21:07.926Z,1.43
2022-12-01T06:23:35.991Z,1.46
2022-12-01T06:26:04.355Z,1.38
2022-12-01T06:28:32.309Z,1.47
2022-12-01T06:31:03.518Z,1.47
2022-12-01T06:33:32.131Z,1.44
2022-12-01T06:36:02.582Z,1.53
2022-12-01T06:38:32.225Z,1.48
2022-12-01T06:41:00.455Z,1.47
2022-12-01T06:43:28.558Z,1.45
2022-12-01T06:46:01.264Z,1.51
2022-12-01T06:48:29.913Z,1.45
2022-12-01T06:50:58.270Z,1.51
2022-12-01T06:53:28.467Z,1.48
2022-12-01T06:56:00.089Z,1.67
2022-12-01T06:58:28.266Z,1.62
2022-12-01T07:00:57.353Z,1.60
2022-12-01T07:03:25.749Z,1.52
2022-12-01T07:05:58.590Z,1.56
2022-12-01T07:08:28.785Z,1.55
2022-12-01T07:11:00.760Z,1.58
2022-12-01T07:13:33.361Z,1.64
2022-12-01T07:16:02.996Z,1.61
2022-12-01T07:18:31.371Z,1.57
2022-12-01T07:21:01.104Z,1.57
2022-12-01T07:23:30.397Z,1.48
2022-12-01T07:26:01.839Z,1.60
2022-12-01T07:28:29.974Z,1.54
2022-12-01T07:31:03.191Z,1.65
2022-12-01T07:33:31.241Z,1.63
2022-12-01T07:35:59.301Z,1.57
2022-12-01T07:38:30.504Z,1.72
2022-12-01T07:41:03.343Z,1.58
2022-12-01T07:43:32.016Z,1.66
2022-12-01T07:46:05.500Z,1.66
2022-12-01T07:48:33.675Z,1.55
2022-12-01T07:51:01.704Z,1.67
2022-12-01T07:53:31.032Z,1.66
2022-12-01T07:55:58.925Z,1.66
2022-12-01T07:58:26.805Z,1.61
2022-12-01T08:00:54.680Z,1.61
2022-12-01T08:03:22.739Z,1.60
2022-12-01T08:05:57.198Z,1.67
2022-12-01T08:08:25.720Z,1.55
2022-12-01T08:10:55.249Z,1.63
2022-12-01T08:13:24.202Z,1.52
2022-12-01T08:15:52.080Z,1.61
2022-12-01T08:18:20.030Z,1.68
2022-12-01T08:20:47.889Z,1.72
2022-12-01T08:23:16.014Z,1.71
2022-12-01T08:25:43.857Z,1.65
2022-12-01T08:28:13.266Z,1.77
2022-12-01T08:30:41.213Z,1.77
2022-12-01T08:33:09.097Z,1.48
2022-12-01T08:35:37.429Z,1.54
2022-12-01T08:38:05.426Z,1.59
2022-12-01T08:40:33.271Z,1.60
2022-12-01T08:43:01.147Z,1.58
2022-12-01T08:45:30.336Z,1.67
2022-12-01T08:47:59.033Z,1.64
2022-12-01T08:50:27.442Z,1.55
2022-12-01T08:52:55.412Z,1.59
2022-12-01T08:55:23.410Z,1.69
2022-12-01T08:57:51.242Z,1.73
2022-12-01T09:00:19.643Z,1.73
2022-12-01T09:02:48.949Z,1.69
2022-12-01T09:05:17.062Z,1.73
2022-12-01T09:08:04.983Z,1.76
2022-12-01T09:10:32.965Z,1.71
2022-12-01T09:13:00.756Z,1.73
2022-12-01T09:15:28.629Z,1.89
2022-12-01T09:17:58.018Z,1.93
2022-12-01T09:20:25.842Z,1.77
2022-12-01T09:22:53.665Z,1.74
2022-12-01T09:25:21.517Z,1.66
2022-12-01T09:27:49.323Z,1.75
2022-12-01T09:30:17.472Z,1.73
2022-12-01T09:32:45.317Z,1.59
2022-12-01T09:35:14.645Z,1.72
2022-12-01T09:37:42.591Z,1.71
2022-12-01T09:40:14.344Z,1.73
2022-12-01T09:42:43.164Z,1.60
2022-12-01T09:45:26.831Z,1.51
2022-12-01T09:47:55.494Z,1.50
2022-12-01T09:50:25.839Z,1.64
2022-12-01T09:52:57.066Z,1.70
2022-12-01T09:55:26.165Z,1.59
2022-12-01T09:57:55.609Z,1.61
2022-12-01T10:00:25.387Z,1.62
2022-12-01T10:02:55.576Z,1.64
2022-12-01T10:05:28.532Z,1.65
2022-12-01T10:07:56.531Z,1.82
2022-12-01T10:10:28.325Z,1.80
2022-12-01T10:12:56.154Z,1.77
2022-12-01T10:15:32.088Z,1.77
2022-12-01T10:18:07.435Z,1.72
2022-12-01T10:20:42.494Z,1.73
2022-12-01T10:23:30.881Z,1.87
2022-12-01T10:26:00.555Z,1.67
2022-12-01T10:28:47.011Z,1.79
2022-12-01T10:31:20.134Z,1.88
2022-12-01T10:33:59.606Z,1.83
2022-12-01T10:36:29.575Z,1.76
2022-12-01T10:38:57.525Z,1.87
2022-12-01T10:41:27.089Z,1.93
2022-12-01T10:43:59.462Z,1.82
2022-12-01T10:46:30.552Z,1.80
2022-12-01T10:48:59.488Z,1.73
2022-12-01T10:51:29.240Z,1.72
2022-12-01T10:54:01.439Z,1.85
2022-12-01T10:56:29.486Z,1.89
2022-12-01T10:58:58.688Z,1.85
2022-12-01T11:01:28.052Z,1.78
2022-12-01T11:03:57.947Z,1.87
2022-12-01T11:06:29.338Z,1.78
2022-12-01T11:08:58.950Z,1.85
2022-12-01T11:11:32.831Z,2.15
2022-12-01T11:14:03.448Z,2.00
2022-12-01T11:16:50.019Z,2.22
2022-12-01T11:19:26.991Z,2.02
2022-12-01T11:21:58.467Z,1.86
2022-12-01T11:24:32.131Z,1.95
2022-12-01T11:27:00.373Z,2.00
2022-12-01T11:29:32.942Z,1.99
2022-12-01T11:32:02.061Z,2.03
2022-12-01T11:34:31.861Z,1.99
2022-12-01T11:37:02.812Z,1.96
2022-12-01T11:39:32.909Z,1.99
2022-12-01T11:42:02.347Z,1.89
2022-12-01T11:47:23.612Z,1.92
2022-12-01T11:49:57.632Z,1.95
2022-12-01T11:52:31.151Z,2.02
2022-12-01T11:55:06.958Z,2.05
2022-12-01T11:57:38.835Z,1.92
2022-12-01T12:00:14.421Z,1.96
2022-12-01T12:02:49.056Z,2.13
2022-12-01T12:05:42.682Z,2.15
2022-12-01T12:08:17.667Z,1.99
2022-12-01T12:10:50.780Z,2.03
2022-12-01T12:13:27.039Z,2.01
2022-12-01T12:16:08.360Z,2.00
2022-12-01T12:18:56.073Z,1.95
2022-12-01T12:21:32.168Z,1.98
2022-12-01T12:24:18.661Z,2.00
2022-12-01T12:26:56.354Z,1.93
2022-12-01T12:29:35.169Z,2.14
2022-12-01T12:32:14.431Z,2.07
2022-12-01T12:34:50.056Z,2.22
2022-12-01T12:37:24.789Z,2.20
2022-12-01T12:40:06.108Z,2.10
2022-12-01T12:42:43.111Z,2.09
2022-12-01T12:45:18.394Z,2.13
2022-12-01T12:47:56.566Z,2.15
2022-12-01T12:50:30.044Z,2.08
2022-12-01T12:52:59.973Z,2.05
2022-12-01T12:55:32.096Z,2.04
2022-12-01T12:58:09.494Z,2.22
2022-12-01T13:00:43.459Z,1.99
2022-12-01T13:03:16.593Z,2.06
2022-12-01T13:05:49.257Z,2.09
2022-12-01T13:08:21.585Z,2.13
2022-12-01T13:10:55.435Z,2.13
2022-12-01T13:13:27.308Z,2.17
2022-12-01T13:15:56.407Z,2.13
2022-12-01T13:18:30.052Z,2.12
2022-12-01T13:20:59.188Z,2.15
2022-12-01T13:23:27.360Z,2.26
2022-12-01T13:25:59.006Z,2.22
2022-12-01T13:28:29.142Z,2.05
2022-12-01T13:31:02.379Z,2.11
2022-12-01T13:33:30.789Z,2.11
2022-12-01T13:36:29.955Z,2.17
2022-12-01T13:38:57.312Z,2.20
2022-12-01T13:41:28.989Z,2.15
2022-12-01T13:44:02.964Z,2.04
2022-12-01T13:46:34.359Z,2.12
2022-12-01T13:49:03.213Z,2.00
2022-12-01T13:52:15.982Z,2.09
2022-12-01T13:55:02.434Z,2.09
2022-12-01T13:57:32.858Z,2.09
2022-12-01T14:00:22.292Z,2.21
2022-12-01T14:03:23.338Z,2.27
2022-12-01T14:05:57.080Z,2.24
2022-12-01T14:08:26.334Z,2.24
2022-12-01T14:10:56.470Z,2.03
2022-12-01T14:13:26.732Z,1.97
2022-12-01T14:15:56.623Z,1.96
2022-12-01T14:18:34.380Z,2.12
2022-12-01T14:21:04.495Z,2.00
2022-12-01T14:23:34.280Z,1.97
2022-12-01T14:26:13.434Z,2.06
2022-12-01T14:29:21.202Z,2.05
2022-12-01T14:32:24.016Z,2.06
2022-12-01T14:34:54.108Z,2.09
2022-12-01T14:37:23.586Z,1.95
2022-12-01T14:39:56.227Z,2.05
2022-12-01T14:42:48.577Z,1.86
2022-12-01T14:45:20.451Z,1.89
2022-12-01T14:47:53.979Z,1.91
2022-12-01T14:50:25.126Z,1.99
2022-12-01T14:52:55.612Z,2.15
2022-12-01T14:55:27.433Z,2.10
2022-12-01T14:58:04.339Z,1.84
2022-12-01T15:00:32.885Z,1.83
2022-12-01T15:03:05.491Z,1.85
2022-12-01T15:05:39.301Z,1.95
2022-12-01T15:08:40.332Z,1.95
2022-12-01T15:11:11.095Z,2.00
2022-12-01T15:13:49.342Z,2.02
2022-12-01T15:16:19.472Z,2.00
2022-12-01T15:18:50.859Z,1.87
2022-12-01T15:21:21.248Z,1.91
2022-12-01T15:24:00.312Z,2.01
2022-12-01T15:26:31.211Z,1.92
2022-12-01T15:29:15.463Z,1.90
2022-12-01T15:31:43.902Z,1.98
2022-12-01T15:34:16.695Z,1.86
2022-12-01T15:36:44.972Z,1.86
2022-12-01T15:39:15.336Z,1.79
2022-12-01T15:41:44.506Z,1.79
2022-12-01T15:44:20.616Z,1.81
2022-12-01T15:46:48.522Z,1.82
2022-12-01T15:49:22.051Z,1.86
2022-12-01T15:51:50.407Z,2.00
2022-12-01T15:54:21.767Z,2.02
2022-12-01T15:56:53.104Z,1.92
2022-12-01T15:59:27.452Z,1.77
2022-12-01T16:01:56.759Z,1.79
2022-12-01T16:04:28.430Z,1.87
2022-12-01T16:06:59.237Z,1.81
2022-12-01T16:09:30.851Z,1.77
2022-12-01T16:12:20.987Z,1.83
2022-12-01T16:14:55.250Z,1.77
2022-12-01T16:17:23.619Z,1.74
2022-12-01T16:20:17.855Z,1.71
2022-12-01T16:22:46.784Z,1.65
2022-12-01T16:25:19.132Z,1.76
2022-12-01T16:27:52.679Z,1.92
2022-12-01T16:30:22.545Z,1.76
2022-12-01T16:32:50.397Z,1.67
2022-12-01T16:35:26.433Z,1.67
2022-12-01T16:37:54.426Z,1.56
2022-12-01T16:40:22.256Z,1.59
2022-12-01T16:42:50.526Z,1.48
2022-12-01T16:45:19.325Z,1.69
2022-12-01T16:47:49.226Z,1.56
2022-12-01T16:50:18.499Z,1.61
2022-12-01T16:52:50.276Z,1.50
2022-12-01T16:55:26.916Z,1.70
2022-12-01T16:57:55.414Z,1.51
2022-12-01T17:00:23.558Z,1.63
2022-12-01T17:02:52.773Z,1.67
2022-12-01T17:05:21.000Z,1.66
2022-12-01T17:07:50.306Z,1.59
2022-12-01T17:10:18.696Z,1.51
2022-12-01T17:12:46.553Z,1.43
2022-12-01T17:15:14.615Z,1.45
2022-12-01T17:17:43.222Z,1.47
2022-12-01T17:20:12.073Z,1.58
2022-12-01T17:22:39.945Z,1.67
2022-12-01T17:25:10.585Z,1.59
2022-12-01T17:27:39.206Z,1.65
2022-12-01T17:30:08.353Z,1.57
2022-12-01T17:32:36.273Z,1.62
2022-12-01T17:35:04.352Z,1.64
2022-12-01T17:37:32.199Z,1.74
2022-12-01T17:40:00.099Z,1.72
2022-12-01T17:42:31.720Z,1.77
2022-12-01T17:44:59.632Z,1.85
2022-12-01T17:47:27.830Z,1.73
2022-12-01T17:49:55.759Z,1.70
2022-12-01T17:52:28.201Z,1.77
2022-12-01T17:54:56.869Z,1.68
2022-12-01T17:57:24.795Z,1.79
2022-12-01T17:59:53.993Z,1.80
2022-12-01T18:02:22.002Z,1.66
2022-12-01T18:04:50.354Z,1.69
2022-12-01T18:07:18.482Z,1.71
2022-12-01T18:09:46.371Z,1.70
2022-12-01T18:12:14.217Z,1.77
2022-12-01T18:14:42.193Z,1.62
2022-12-01T18:17:11.432Z,1.68
2022-12-01T18:19:40.458Z,1.88
2022-12-01T18:22:08.873Z,1.74
2022-12-01T18:24:36.784Z,1.73
2022-12-01T18:27:05.262Z,1.75
2022-12-01T18:29:34.773Z,1.71
2022-12-01T18:32:03.114Z,1.72
2022-12-01T18:34:32.355Z,1.65
2022-12-01T18:37:02.142Z,1.72
2022-12-01T18:39:30.191Z,1.62
2022-12-01T18:41:58.075Z,1.72
2022-12-01T18:44:26.049Z,1.74
2022-12-01T18:46:54.043Z,1.72
2022-12-01T18:49:21.978Z,1.70
2022-12-01T18:51:51.258Z,1.73
2022-12-01T18:54:19.099Z,1.73
2022-12-01T18:56:47.851Z,1.69
2022-12-01T18:59:17.200Z,1.75
2022-12-01T19:01:46.607Z,1.66
2022-12-01T19:04:16.153Z,1.75
2022-12-01T19:06:45.524Z,1.65
2022-12-01T19:09:17.545Z,1.70
2022-12-01T19:11:46.007Z,1.72
2022-12-01T19:14:16.738Z,1.68
2022-12-01T19:16:46.297Z,1.70
2022-12-01T19:19:14.297Z,1.81
2022-12-01T19:21:45.127Z,1.68
2022-12-01T19:24:14.423Z,1.66
2022-12-01T19:26:42.791Z,1.65
2022-12-01T19:29:11.316Z,1.66
2022-12-01T19:31:39.411Z,1.76
2022-12-01T19:34:07.950Z,1.80
2022-12-01T19:36:35.810Z,1.70
2022-12-01T19:39:06.035Z,1.67
2022-12-01T19:41:39.115Z,1.77
2022-12-01T19:44:07.078Z,1.77
2022-12-01T19:46:35.140Z,1.71
2022-12-01T19:49:03.839Z,1.71
2022-12-01T19:51:35.557Z,1.77
2022-12-01T19:54:04.570Z,1.86
2022-12-01T19:56:32.548Z,1.75
2022-12-01T19:59:01.782Z,1.80
2022-12-01T20:01:29.983Z,1.72
2022-12-01T20:03:57.987Z,1.76
2022-12-01T20:06:27.977Z,1.78
2022-12-01T20:08:58.382Z,1.89
2022-12-01T20:11:26.713Z,1.78
2022-12-01T20:13:54.858Z,1.74
2022-12-01T20:16:25.307Z,1.74
2022-12-01T20:18:54.321Z,1.71
2022-12-01T20:21:24.364Z,1.76
2022-12-01T20:23:57.860Z,1.67
2022-12-01T20:26:30.565Z,1.67
2022-12-01T20:29:01.558Z,1.65
2022-12-01T20:31:32.533Z,1.74
2022-12-01T20:34:03.547Z,1.77
2022-12-01T20:36:31.524Z,1.88
2022-12-01T20:38:59.535Z,1.85
2022-12-01T20:41:27.929Z,1.77
2022-12-01T20:43:56.306Z,1.72
2022-12-01T20:46:25.739Z,1.67
2022-12-01T20:48:55.086Z,1.61
2022-12-01T20:51:23.144Z,1.66
2022-12-01T20:54:19.713Z,1.71
2022-12-01T20:56:39.301Z,1.68
2022-12-01T20:59:07.228Z,1.66
2022-12-01T21:01:35.070Z,1.70
2022-12-01T21:04:06.169Z,1.68
2022-12-01T21:06:34.133Z,1.81
2022-12-01T21:09:03.106Z,1.77
2022-12-01T21:11:51.187Z,1.84
2022-12-01T21:14:20.936Z,1.78
2022-12-01T21:16:50.115Z,1.76
2022-12-01T21:19:23.932Z,1.89
2022-12-01T21:21:51.739Z,1.82
2022-12-01T21:24:22.133Z,1.67
2022-12-01T21:26:51.283Z,1.67
2022-12-01T21:29:21.515Z,1.88
2022-12-01T21:31:50.877Z,1.88
2022-12-01T21:34:23.883Z,1.78
2022-12-01T21:36:52.249Z,1.78
2022-12-01T21:39:21.712Z,1.69
2022-12-01T21:41:50.443Z,1.72
2022-12-01T21:44:19.728Z,1.67
2022-12-01T21:46:48.557Z,1.87
2022-12-01T21:49:20.533Z,1.92
2022-12-01T21:51:49.346Z,1.91
2022-12-01T21:54:20.301Z,1.75
2022-12-01T21:56:49.129Z,1.81
2022-12-01T21:59:21.687Z,1.77
2022-12-01T22:01:52.654Z,1.76
2022-12-01T22:04:23.158Z,1.73
2022-12-01T22:06:53.190Z,1.64
2022-12-01T22:09:24.705Z,1.63
2022-12-01T22:11:54.857Z,1.67
2022-12-01T22:14:24.597Z,1.72
2022-12-01T22:16:57.864Z,1.70
2022-12-01T22:19:30.091Z,1.71
2022-12-01T22:22:03.035Z,1.64
2022-12-01T22:24:35.898Z,1.67
2022-12-01T22:27:29.090Z,1.70
2022-12-01T22:29:59.280Z,1.63
2022-12-01T22:32:39.071Z,1.66
2022-12-01T22:35:29.383Z,1.67
2022-12-01T22:38:02.158Z,1.76
2022-12-01T22:40:34.882Z,1.93
2022-12-01T22:43:20.572Z,1.80
2022-12-01T22:45:50.799Z,1.74
2022-12-01T22:48:27.859Z,1.75
2022-12-01T22:51:00.183Z,1.74
2022-12-01T22:53:30.984Z,1.71
2022-12-01T22:56:01.480Z,1.70
2022-12-01T22:58:32.045Z,1.71
2022-12-01T23:01:02.726Z,1.75
2022-12-01T23:03:31.435Z,1.77
2022-12-01T23:06:03.261Z,1.64
2022-12-01T23:08:34.397Z,1.61
2022-12-01T23:11:07.812Z,1.68
2022-12-01T23:13:43.866Z,1.67
2022-12-01T23:16:12.924Z,1.73
2022-12-01T23:18:41.087Z,1.68
2022-12-01T23:21:10.479Z,1.68
2022-12-01T23:23:38.792Z,1.67
2022-12-01T23:26:08.579Z,1.77
2022-12-01T23:28:37.459Z,1.73
2022-12-01T23:31:05.528Z,1.80
2022-12-01T23:33:33.765Z,1.73
2022-12-01T23:36:04.021Z,1.73
2022-12-01T23:38:38.685Z,1.74
2022-12-01T23:41:08.022Z,1.73
2022-12-01T23:43:39.034Z,1.72
2022-12-01T23:46:10.367Z,1.83
2022-12-01T23:48:40.810Z,1.80
2022-12-01T23:51:15.593Z,1.76
2022-12-01T23:53:44.879Z,1.94
2022-12-01T23:56:16.810Z,2.08
2022-12-01T23:58:45.109Z,1.94
